Time;durP1;ratioP1;P1;durP2;ratioP2;P2;SDS_P1;SDS_P2;PMS_P1;PMS_P2;Temp;Humidity;BMP_temperature;BMP_pressure;BME280_temperature;BME280_humidity;BME280_pressure;Samples;Min_cycle;Max_cycle;Signal;HPM_P1;HPM_P2
2021/12/07 00:01:20;;;;;;;14.18;10.57;;;;;;;-3.50;92.27;100279.63;6272134;22;20034;-71
2021/12/07 00:03:46;;;;;;;9.25;8.30;;;;;;;-3.49;92.21;100237.13;6273339;22;20020;-69
2021/12/07 00:06:12;;;;;;;9.80;6.68;;;;;;;-3.47;92.42;100251.63;6297485;22;20012;-70
2021/12/07 00:08:40;;;;;;;13.15;8.75;;;;;;;-3.48;92.70;100252.47;6273807;22;20022;-71
2021/12/07 00:11:07;;;;;;;12.18;8.10;;;;;;;-3.47;92.38;100241.41;6274011;22;20102;-70
2021/12/07 00:13:36;;;;;;;13.82;10.45;;;;;;;-3.47;92.46;100231.22;6271945;22;20015;-70
2021/12/07 00:16:04;;;;;;;13.20;11.38;;;;;;;-3.48;92.15;100226.94;6271390;22;20029;-70
2021/12/07 00:18:30;;;;;;;12.75;8.38;;;;;;;-3.47;92.34;100238.88;6221118;22;20020;-70
2021/12/07 00:20:56;;;;;;;10.57;8.00;;;;;;;-3.48;92.42;100238.84;6271087;22;20024;-70
2021/12/07 00:23:22;;;;;;;8.65;6.60;;;;;;;-3.51;93.19;100232.03;6273223;22;20465;-70
2021/12/07 00:25:48;;;;;;;9.75;8.85;;;;;;;-3.49;92.91;100225.22;6245693;22;20019;-70
2021/12/07 00:28:14;;;;;;;9.82;8.93;;;;;;;-3.46;92.79;100220.16;6271783;22;20571;-70
2021/12/07 00:30:40;;;;;;;9.35;8.10;;;;;;;-3.45;92.71;100198.03;6271399;22;20050;-70
2021/12/07 00:33:16;;;;;;;7.78;5.40;;;;;;;-3.45;92.85;100211.66;6271208;22;20020;-69
2021/12/07 00:35:42;;;;;;;10.95;7.43;;;;;;;-3.42;93.15;100219.31;6271260;22;20081;-69
2021/12/07 00:38:14;;;;;;;10.35;8.68;;;;;;;-3.47;92.68;100195.50;6220488;22;20016;-70
2021/12/07 00:40:40;;;;;;;9.70;8.32;;;;;;;-3.43;92.85;100201.44;6296252;22;20027;-69
2021/12/07 00:43:08;;;;;;;7.07;6.38;;;;;;;-3.46;92.96;100202.28;6220459;22;20015;-69
2021/12/07 00:45:35;;;;;;;12.57;8.57;;;;;;;-3.43;93.15;100199.75;6245845;22;20357;-71
2021/12/07 00:48:03;;;;;;;9.35;7.72;;;;;;;-3.40;92.82;100198.91;6271136;22;20015;-70
2021/12/07 00:50:29;;;;;;;8.07;7.20;;;;;;;-3.41;92.74;100198.09;6273160;22;20493;-70
2021/12/07 00:52:55;;;;;;;6.82;6.22;;;;;;;-3.41;92.69;100200.63;6245655;22;20077;-70
2021/12/07 00:55:26;;;;;;;8.60;7.68;;;;;;;-3.40;92.78;100179.34;6272560;22;20532;-70
2021/12/07 00:57:56;;;;;;;14.20;9.13;;;;;;;-3.41;93.18;100195.53;6296834;22;20375;-71
2021/12/07 01:00:25;;;;;;;13.68;10.40;;;;;;;-3.43;93.27;100148.72;6271363;22;20020;-71
2021/12/07 01:02:53;;;;;;;16.27;6.28;;;;;;;-3.42;95.29;100159.78;6296180;22;20451;-71
2021/12/07 01:05:26;;;;;;;7.78;7.05;;;;;;;-3.43;95.61;100174.22;6272669;22;20012;-71
2021/12/07 01:26:47;;;;;;;9.63;7.93;;;;;;;-3.36;94.10;100159.81;6272440;22;20087;-71
2021/12/07 01:29:16;;;;;;;16.25;7.80;;;;;;;-3.33;94.28;100153.03;6270628;22;20046;-71
2021/12/07 01:32:07;;;;;;;7.70;7.00;;;;;;;-3.31;94.27;100151.38;6270985;22;20029;-72
2021/12/07 01:37:27;;;;;;;9.13;7.93;;;;;;;-3.27;93.04;100131.78;6272248;22;20015;-70
2021/12/07 02:00:42;;;;;;;8.82;6.32;;;;;;;-3.24;95.01;100127.56;6249535;22;20026;-71
2021/12/07 02:03:08;;;;;;;8.57;6.10;;;;;;;-3.21;95.24;100114.81;6245622;22;20015;-72
2021/12/07 02:05:35;;;;;;;7.28;6.57;;;;;;;-3.21;95.15;100089.28;6245442;22;20019;-71
2021/12/07 02:08:02;;;;;;;9.35;6.32;;;;;;;-3.20;95.02;100103.75;6244808;22;20024;-70
2021/12/07 02:10:30;;;;;;;9.55;5.65;;;;;;;-3.18;95.27;100104.63;6244809;22;20069;-71
2021/12/07 02:13:07;;;;;;;9.88;7.65;;;;;;;-3.21;94.86;100091.00;6271428;22;20039;-71
2021/12/07 02:15:33;;;;;;;8.95;7.45;;;;;;;-3.18;95.11;100098.69;6272604;22;20102;-71
2021/12/07 02:18:00;;;;;;;20.63;13.70;;;;;;;-3.19;95.38;100090.16;6269842;22;20406;-71
2021/12/07 02:20:28;;;;;;;11.57;9.35;;;;;;;-3.17;95.00;100100.34;6245032;22;20482;-72
2021/12/07 02:22:54;;;;;;;6.47;5.95;;;;;;;-3.19;95.35;100082.50;6245011;22;20023;-71
2021/12/07 02:25:20;;;;;;;7.72;6.03;;;;;;;-3.16;95.31;100082.50;6270271;22;20061;-72
2021/12/07 02:27:47;;;;;;;16.70;10.40;;;;;;;-3.12;95.25;100100.38;6270701;22;20054;-73
2021/12/07 02:30:16;;;;;;;13.45;9.43;;;;;;;-3.14;95.29;100084.22;6271969;22;20060;-72
2021/12/07 02:32:42;;;;;;;5.00;4.60;;;;;;;-3.13;95.58;100088.47;6270352;22;20367;-72
2021/12/07 02:35:15;;;;;;;7.35;6.75;;;;;;;-3.10;95.04;100085.91;6271027;22;20016;-71
2021/12/07 02:37:42;;;;;;;7.90;7.07;;;;;;;-3.11;95.15;100068.91;6246006;22;20521;-72
2021/12/07 02:40:09;;;;;;;12.27;9.27;;;;;;;-3.08;95.10;100074.03;6219575;22;20020;-73
2021/12/07 02:42:37;;;;;;;10.70;9.63;;;;;;;-3.05;94.80;100084.25;6219280;22;20030;-72
2021/12/07 02:45:05;;;;;;;9.02;8.10;;;;;;;-3.05;94.72;100068.94;6270212;22;20011;-72
2021/12/07 02:47:35;;;;;;;11.63;9.68;;;;;;;-3.03;95.21;100072.34;6244477;22;20066;-72
2021/12/07 02:50:03;;;;;;;7.53;6.75;;;;;;;-3.04;95.10;100065.53;6270193;22;20019;-72
2021/12/07 02:52:30;;;;;;;15.75;11.00;;;;;;;-3.02;95.24;100074.03;6270040;22;20026;-71
2021/12/07 02:54:56;;;;;;;17.15;12.15;;;;;;;-3.01;95.39;100057.91;6270440;22;20022;-71
2021/12/07 02:57:26;;;;;;;27.20;15.38;;;;;;;-3.00;95.51;100057.03;6245017;22;20054;-71
2021/12/07 03:00:16;;;;;;;23.00;17.48;;;;;;;-3.04;94.96;100055.34;6269595;22;20015;-71
2021/12/07 03:02:48;;;;;;;12.80;7.22;;;;;;;-2.97;94.71;100051.91;6270115;22;20019;-73
2021/12/07 03:05:33;;;;;;;20.20;14.43;;;;;;;-2.96;94.74;100048.53;6269795;22;20075;-71
2021/12/07 03:26:47;;;;;;;16.15;11.80;;;;;;;-2.95;94.86;100009.38;6223475;22;20118;-72
2021/12/07 03:29:13;;;;;;;21.48;13.90;;;;;;;-2.97;94.98;100021.28;6269880;22;20022;-72
2021/12/07 03:31:39;;;;;;;13.23;11.93;;;;;;;-2.98;95.00;100000.03;6269634;22;20382;-72
2021/12/07 03:34:06;;;;;;;27.75;18.50;;;;;;;-2.94;94.98;99993.19;6219032;22;20340;-74
2021/12/07 03:36:34;;;;;;;11.60;10.35;;;;;;;-2.97;95.37;99971.06;6244885;22;20019;-72
2021/12/07 03:39:01;;;;;;;15.98;12.73;;;;;;;-2.98;95.14;99978.75;6245174;22;20101;-74
2021/12/07 03:41:28;;;;;;;22.30;13.52;;;;;;;-2.94;95.24;99976.19;6270869;22;20025;-73
2021/12/07 03:43:54;;;;;;;21.70;13.10;;;;;;;-2.95;95.25;99973.63;6272576;22;20474;-73
2021/12/07 03:46:20;;;;;;;22.02;12.23;;;;;;;-2.93;95.48;99977.03;6274545;22;20019;-74
2021/12/07 03:48:47;;;;;;;14.60;11.48;;;;;;;-2.94;95.47;99967.66;6245471;22;20020;-76
2021/12/07 03:51:14;;;;;;;31.77;17.20;;;;;;;-2.91;95.29;99957.47;6270643;22;20024;-73
2021/12/07 03:53:40;;;;;;;9.82;7.03;;;;;;;-2.92;95.26;99953.22;6246803;22;20027;-74
2021/12/07 03:56:07;;;;;;;22.33;12.15;;;;;;;-2.88;95.35;99957.47;6246502;22;20289;-74
2021/12/07 03:58:37;;;;;;;24.38;15.80;;;;;;;-2.93;95.20;99954.06;6221814;22;20038;-74
2021/12/07 04:01:06;;;;;;;15.98;10.95;;;;;;;-2.86;94.87;99953.22;6272842;22;20020;-74
2021/12/07 04:03:34;;;;;;;14.90;10.32;;;;;;;-2.86;94.70;99937.91;6219938;22;20062;-72
2021/12/07 04:06:04;;;;;;;19.88;12.63;;;;;;;-2.84;94.85;99943.84;6270230;22;20020;-73
2021/12/07 04:08:31;;;;;;;14.97;10.57;;;;;;;-2.82;94.84;99950.69;6219447;22;20046;-73
2021/12/07 04:10:58;;;;;;;16.27;10.02;;;;;;;-2.82;94.53;99929.38;6269667;22;20289;-73
2021/12/07 04:13:24;;;;;;;9.38;8.43;;;;;;;-2.80;94.26;99948.09;6246137;22;20022;-75
2021/12/07 04:15:51;;;;;;;13.05;9.77;;;;;;;-2.76;94.56;99937.03;6271433;22;20038;-73
2021/12/07 04:18:17;;;;;;;14.00;10.30;;;;;;;-2.77;94.53;99927.66;6296700;22;20019;-72
2021/12/07 04:20:44;;;;;;;18.38;10.88;;;;;;;-2.76;94.64;99925.13;6246101;22;20023;-72
2021/12/07 04:23:11;;;;;;;14.68;9.95;;;;;;;-2.75;94.29;99928.53;6271625;22;20428;-73
2021/12/07 04:25:37;;;;;;;16.40;9.90;;;;;;;-2.72;94.59;99928.53;6246269;22;20020;-73
2021/12/07 04:28:04;;;;;;;12.13;9.70;;;;;;;-2.83;94.61;99908.09;6272808;22;20094;-74
2021/12/07 04:30:38;;;;;;;6.72;6.15;;;;;;;-2.72;94.74;99905.53;6273200;22;20466;-73
2021/12/07 04:33:06;;;;;;;8.65;7.82;;;;;;;-2.70;94.48;99911.50;6271508;22;20015;-73
2021/12/07 04:35:32;;;;;;;21.65;11.95;;;;;;;-2.70;95.14;99904.69;6271921;22;20019;-72
2021/12/07 04:37:58;;;;;;;10.07;8.95;;;;;;;-2.67;94.98;99885.94;6271445;22;20535;-73
2021/12/07 04:40:26;;;;;;;9.10;8.25;;;;;;;-2.66;94.62;99885.09;6245891;22;20102;-73
2021/12/07 04:42:52;;;;;;;11.38;7.85;;;;;;;-2.67;94.89;99858.69;6296719;22;20023;-74
2021/12/07 04:59:01;;;;;;;15.00;9.13;;;;;;;-2.58;95.54;99846.78;6271410;22;20020;-74
2021/12/07 05:01:27;;;;;;;8.85;8.05;;;;;;;-2.55;95.26;99851.88;6271121;22;20285;-72
2021/12/07 05:03:56;;;;;;;16.25;11.45;;;;;;;-2.55;96.03;99844.22;6273084;22;20015;-73
2021/12/07 05:06:27;;;;;;;13.02;9.48;;;;;;;-2.58;95.68;99829.72;6270987;22;20106;-72
2021/12/07 05:09:03;;;;;;;12.00;9.43;;;;;;;-2.51;95.90;99820.34;6271140;22;20196;-72
2021/12/07 05:11:46;;;;;;;5.45;4.97;;;;;;;-2.47;95.58;99834.81;6271720;22;20254;-73
2021/12/07 05:14:22;;;;;;;9.30;7.82;;;;;;;-2.48;94.92;99822.88;6271415;22;20016;-73
2021/12/07 05:24:26;;;;;;;8.35;6.35;;;;;;;-2.43;96.10;99776.03;6271627;22;20023;-73
2021/12/07 05:40:07;;;;;;;7.78;6.93;;;;;;;-2.34;97.15;99816.03;6271165;22;20019;-73
2021/12/07 05:42:35;;;;;;;5.43;4.85;;;;;;;-2.36;97.55;99807.53;6272536;22;20340;-71
2021/12/07 05:45:01;;;;;;;5.50;5.07;;;;;;;-2.38;97.23;99810.06;6265531;22;20020;-72
2021/12/07 05:47:29;;;;;;;7.00;6.40;;;;;;;-2.36;97.24;99789.63;6269271;22;20444;-71
2021/12/07 05:49:55;;;;;;;6.10;5.40;;;;;;;-2.36;97.07;99792.19;6295230;22;20016;-72
2021/12/07 05:52:21;;;;;;;6.75;5.90;;;;;;;-2.38;97.05;99778.53;6269848;22;20082;-72
2021/12/07 05:54:48;;;;;;;5.90;5.38;;;;;;;-2.35;97.40;99793.88;6272569;22;20015;-71
2021/12/07 05:57:14;;;;;;;6.80;6.20;;;;;;;-2.33;96.93;99784.50;6269304;22;20455;-70
2021/12/07 05:59:40;;;;;;;6.75;5.88;;;;;;;-2.36;97.22;99787.94;6268909;22;20483;-71
2021/12/07 06:02:06;;;;;;;8.65;7.75;;;;;;;-2.35;97.00;99741.06;6243826;22;20035;-70
2021/12/07 06:04:32;;;;;;;7.10;6.50;;;;;;;-2.32;97.04;99758.91;6269399;22;20363;-71
2021/12/07 06:06:59;;;;;;;7.50;6.65;;;;;;;-2.32;97.34;99775.97;6271011;22;20022;-71
2021/12/07 06:09:25;;;;;;;6.82;6.22;;;;;;;-2.32;97.04;99758.91;6294857;22;20094;-72
2021/12/07 06:11:53;;;;;;;6.03;5.53;;;;;;;-2.31;97.29;99770.00;6271151;22;20493;-71
2021/12/07 06:14:21;;;;;;;5.68;5.05;;;;;;;-2.27;97.25;99787.88;6293995;22;20090;-72
2021/12/07 06:16:47;;;;;;;6.90;6.35;;;;;;;-2.27;97.20;99771.69;6269743;22;20459;-70
2021/12/07 06:19:13;;;;;;;6.32;5.72;;;;;;;-2.27;97.21;99767.44;6269445;22;20371;-71
2021/12/07 06:21:39;;;;;;;6.00;5.55;;;;;;;-2.24;96.97;99769.97;6271043;22;20359;-72
2021/12/07 06:24:06;;;;;;;7.43;5.45;;;;;;;-2.24;97.31;99795.53;6243619;22;20142;-72
2021/12/07 06:26:35;;;;;;;5.97;5.50;;;;;;;-2.26;97.40;99797.22;6270352;22;20463;-72
2021/12/07 06:29:01;;;;;;;10.35;5.63;;;;;;;-2.25;97.65;99788.72;6295064;22;20034;-71
2021/12/07 06:31:27;;;;;;;5.97;4.00;;;;;;;-2.25;98.14;99788.72;6270881;22;20426;-72
2021/12/07 06:33:53;;;;;;;5.88;5.30;;;;;;;-2.26;98.21;99792.13;6244188;22;20058;-70
2021/12/07 06:36:19;;;;;;;5.20;4.88;;;;;;;-2.28;98.06;99760.63;6242568;22;20015;-71
2021/12/07 06:38:47;;;;;;;7.20;5.03;;;;;;;-2.25;97.96;99783.59;6270950;22;20016;-71
2021/12/07 06:41:13;;;;;;;5.55;5.15;;;;;;;-2.26;98.10;99778.50;6269488;22;20109;-70
2021/12/07 06:43:39;;;;;;;4.30;4.10;;;;;;;-2.29;98.38;99775.97;6243995;22;20463;-80
2021/12/07 06:46:05;;;;;;;5.90;5.40;;;;;;;-2.26;98.63;99743.56;6268873;22;20046;-71
2021/12/07 06:48:32;;;;;;;3.50;3.28;;;;;;;-2.27;98.83;99782.78;6243952;22;20069;-73
2021/12/07 06:50:58;;;;;;;4.82;4.43;;;;;;;-2.22;98.64;99773.34;6241515;22;20027;-72
2021/12/07 06:53:24;;;;;;;4.70;4.40;;;;;;;-2.21;99.14;99767.41;6267867;22;20057;-72
2021/12/07 06:55:50;;;;;;;4.18;3.88;;;;;;;-2.20;99.55;99771.66;6244356;22;20039;-73
2021/12/07 06:58:16;;;;;;;6.90;6.35;;;;;;;-2.25;99.45;99765.72;6273067;22;20254;-72
2021/12/07 07:00:42;;;;;;;5.72;4.57;;;;;;;-2.22;99.77;99770.81;6271563;22;20019;-73
2021/12/07 07:03:08;;;;;;;3.13;2.92;;;;;;;-2.16;99.86;99769.94;6270763;22;20020;-70
2021/12/07 07:05:35;;;;;;;4.38;3.97;;;;;;;-2.18;99.98;99762.28;6270849;22;20065;-72
2021/12/07 07:08:02;;;;;;;4.03;3.67;;;;;;;-2.17;99.53;99758.00;6272150;22;20024;-74
2021/12/07 07:10:29;;;;;;;2.67;2.53;;;;;;;-2.15;99.65;99761.41;6245591;22;20038;-74
2021/12/07 07:12:55;;;;;;;4.43;4.13;;;;;;;-2.15;99.67;99739.25;6270571;22;20020;-72
2021/12/07 07:15:22;;;;;;;3.65;3.35;;;;;;;-2.20;99.65;99748.66;6295586;22;20019;-74
2021/12/07 07:17:48;;;;;;;4.00;3.67;;;;;;;-2.11;99.68;99778.44;6272035;22;20020;-73
2021/12/07 07:20:14;;;;;;;3.85;3.55;;;;;;;-2.08;99.52;99767.31;6272136;22;20085;-72
2021/12/07 07:22:40;;;;;;;3.45;3.22;;;;;;;-2.14;99.05;99766.50;6272805;22;20020;-71
2021/12/07 07:25:07;;;;;;;3.90;3.60;;;;;;;-2.11;99.04;99769.06;6272431;22;20355;-73
2021/12/07 07:27:34;;;;;;;3.35;3.05;;;;;;;-2.13;99.21;99763.09;6298426;22;20039;-73
2021/12/07 07:30:00;;;;;;;3.75;3.45;;;;;;;-2.13;99.13;99760.53;6273958;22;20024;-72
2021/12/07 07:32:26;;;;;;;2.92;2.72;;;;;;;-2.09;99.23;99775.88;6273324;22;20494;-74
2021/12/07 07:34:52;;;;;;;3.83;3.42;;;;;;;-2.08;99.34;99762.22;6278481;22;20020;-75
2021/12/07 07:37:18;;;;;;;2.85;2.65;;;;;;;-2.06;99.56;99751.13;6250119;22;20012;-74
2021/12/07 07:39:45;;;;;;;6.45;4.00;;;;;;;-2.07;99.60;99736.66;6250244;22;20530;-74
2021/12/07 07:42:12;;;;;;;4.40;4.10;;;;;;;-2.03;98.99;99750.28;6272137;22;20466;-73
2021/12/07 07:44:51;;;;;;;3.22;3.03;;;;;;;-2.05;99.72;99739.19;6273069;22;20443;-73
2021/12/07 07:47:17;;;;;;;4.43;2.60;;;;;;;-1.99;99.44;99747.66;6275155;22;20016;-73
2021/12/07 07:49:43;;;;;;;4.28;3.97;;;;;;;-2.00;99.24;99704.22;6272318;22;20054;-73
2021/12/07 07:52:09;;;;;;;2.83;2.65;;;;;;;-1.92;98.93;99748.47;6299172;22;20028;-73
2021/12/07 07:54:35;;;;;;;2.83;2.63;;;;;;;-1.90;98.58;99757.00;6273952;22;20102;-73
2021/12/07 07:57:01;;;;;;;2.92;2.70;;;;;;;-1.94;98.34;99750.19;6275490;22;20244;-75
2021/12/07 07:59:27;;;;;;;3.40;3.20;;;;;;;-1.97;98.42;99735.72;6275072;22;20019;-73
2021/12/07 08:01:54;;;;;;;3.55;3.35;;;;;;;-1.90;98.10;99739.97;6249100;22;20020;-73
2021/12/07 08:04:20;;;;;;;3.00;2.75;;;;;;;-1.90;98.36;99731.44;6272774;22;20030;-73
2021/12/07 08:06:46;;;;;;;3.08;2.88;;;;;;;-1.88;98.48;99758.69;6275278;22;20393;-75
2021/12/07 08:09:13;;;;;;;3.17;2.97;;;;;;;-1.84;98.37;99734.78;6274733;22;20366;-73
2021/12/07 08:11:40;;;;;;;3.45;3.15;;;;;;;-1.80;98.33;99730.50;6273308;22;20620;-73
2021/12/07 08:14:06;;;;;;;4.20;3.95;;;;;;;-1.82;97.81;99738.19;6275245;22;20026;-73
2021/12/07 08:16:33;;;;;;;3.10;2.90;;;;;;;-1.80;98.09;99738.19;6277028;22;20011;-76
2021/12/07 08:19:00;;;;;;;5.35;3.03;;;;;;;-1.81;97.18;99731.34;6253060;22;20020;-74
2021/12/07 08:21:28;;;;;;;3.20;3.00;;;;;;;-1.83;97.88;99730.53;6250316;22;20019;-75
2021/12/07 08:23:55;;;;;;;3.75;3.45;;;;;;;-1.82;97.73;99722.84;6276842;22;20022;-75
2021/12/07 08:26:22;;;;;;;2.53;2.42;;;;;;;-1.81;97.45;99704.06;6254195;22;20081;-73
2021/12/07 08:28:50;;;;;;;3.22;3.03;;;;;;;-1.75;97.86;99700.59;6280835;22;20456;-74
2021/12/07 08:31:16;;;;;;;2.63;2.53;;;;;;;-1.74;97.50;99708.28;6274966;22;20012;-73
2021/12/07 08:33:42;;;;;;;3.60;3.30;;;;;;;-1.68;97.50;99712.50;6274895;22;20016;-76
2021/12/07 08:36:09;;;;;;;3.33;3.03;;;;;;;-1.64;97.64;99721.84;6276563;22;20051;-76
2021/12/07 08:38:35;;;;;;;3.03;2.83;;;;;;;-1.64;97.32;99725.22;6276371;22;20020;-73
2021/12/07 08:41:03;;;;;;;3.80;3.50;;;;;;;-1.69;97.54;99729.56;6276134;22;20028;-77
2021/12/07 08:43:30;;;;;;;2.75;2.58;;;;;;;-1.72;97.85;99721.91;6279292;22;20019;-75
2021/12/07 08:45:57;;;;;;;2.50;2.40;;;;;;;-1.68;97.49;99708.22;6280194;22;20063;-75
2021/12/07 08:48:22;;;;;;;3.75;3.45;;;;;;;-1.69;97.63;99680.09;6273288;22;20107;-73
2021/12/07 08:50:49;;;;;;;3.35;3.15;;;;;;;-1.68;97.06;99697.16;6272278;22;20035;-73
2021/12/07 08:53:16;;;;;;;3.17;2.97;;;;;;;-1.66;97.49;99695.41;6246740;22;20096;-74
2021/12/07 09:01:15;;;;;;;2.50;2.40;;;;;;;-1.62;97.35;99691.97;6273169;22;20157;-73
2021/12/07 09:03:42;;;;;;;2.33;2.22;;;;;;;-1.57;96.70;99682.53;6274619;22;20106;-73
2021/12/07 09:06:08;;;;;;;3.17;2.97;;;;;;;-1.58;96.50;99685.97;6246510;22;20024;-73
2021/12/07 09:08:35;;;;;;;2.63;2.53;;;;;;;-1.61;97.77;99680.88;6248975;22;20016;-73
2021/12/07 09:11:02;;;;;;;3.42;3.22;;;;;;;-1.53;98.06;99670.56;6272706;22;20030;-73
2021/12/07 09:13:29;;;;;;;3.08;2.90;;;;;;;-1.54;98.27;99664.63;6275483;22;20538;-73
2021/12/07 09:15:55;;;;;;;3.08;2.97;;;;;;;-1.57;98.01;99660.34;6271145;22;20228;-74
2021/12/07 09:18:21;;;;;;;2.90;2.80;;;;;;;-1.53;98.45;99643.25;6296250;22;20040;-72
2021/12/07 09:20:47;;;;;;;3.30;3.10;;;;;;;-1.51;98.16;99677.38;6272527;22;20026;-73
2021/12/07 09:23:14;;;;;;;3.92;3.50;;;;;;;-1.45;98.57;99679.88;6250837;22;20083;-74
2021/12/07 09:25:40;;;;;;;3.20;2.97;;;;;;;-1.49;98.24;99660.28;6273854;22;20081;-74
2021/12/07 09:28:07;;;;;;;2.20;2.10;;;;;;;-1.50;97.81;99661.13;6276414;22;20073;-73
2021/12/07 09:30:33;;;;;;;3.08;2.88;;;;;;;-1.47;97.65;99660.28;6271954;22;20062;-74
2021/12/07 09:32:59;;;;;;;1.90;1.80;;;;;;;-1.43;97.80;99662.78;6273905;22;20031;-74
2021/12/07 09:35:25;;;;;;;2.63;2.53;;;;;;;-1.56;97.22;99650.97;6274233;22;20023;-74
2021/12/07 09:37:52;;;;;;;2.45;2.35;;;;;;;-1.48;96.83;99656.88;6272608;22;20043;-73
2021/12/07 09:40:19;;;;;;;2.83;2.63;;;;;;;-1.46;96.57;99657.69;6273638;22;20020;-75
2021/12/07 09:42:47;;;;;;;3.25;2.95;;;;;;;-1.48;96.68;99644.09;6274622;22;20363;-74
2021/12/07 09:45:13;;;;;;;2.35;2.25;;;;;;;-1.51;96.34;99641.56;6274668;22;20466;-73
2021/12/07 09:47:39;;;;;;;2.53;2.42;;;;;;;-1.48;96.38;99623.59;6274905;22;20039;-76
2021/12/07 09:50:07;;;;;;;4.47;2.40;;;;;;;-1.48;95.58;99635.56;6276360;22;20042;-74
2021/12/07 09:52:33;;;;;;;2.28;2.17;;;;;;;-1.47;95.40;99645.75;6248402;22;20028;-74
2021/12/07 09:54:59;;;;;;;4.55;4.25;;;;;;;-1.36;96.18;99650.78;6275129;22;20492;-74
2021/12/07 09:57:25;;;;;;;3.13;2.85;;;;;;;-1.32;96.09;99643.06;6274713;22;20011;-72
2021/12/07 09:59:51;;;;;;;2.78;2.55;;;;;;;-1.49;95.79;99637.25;6273481;22;20158;-74
2021/12/07 10:02:18;;;;;;;2.63;2.53;;;;;;;-1.37;96.08;99649.91;6248704;22;20731;-73
2021/12/07 10:04:45;;;;;;;3.22;3.00;;;;;;;-1.39;96.27;99651.66;6299297;22;20039;-74
2021/12/07 10:07:12;;;;;;;2.60;2.13;;;;;;;-1.37;95.68;99647.38;6274060;22;20436;-76
2021/12/07 10:09:38;;;;;;;3.70;3.42;;;;;;;-1.36;95.90;99651.63;6276252;22;20024;-75
2021/12/07 10:12:05;;;;;;;4.47;2.60;;;;;;;-1.40;95.79;99642.28;6273505;22;20434;-73
2021/12/07 10:14:38;;;;;;;3.17;2.97;;;;;;;-1.38;96.39;99645.69;6299402;22;20019;-74
2021/12/07 10:17:05;;;;;;;2.85;2.70;;;;;;;-1.43;96.07;99642.31;6276444;22;20395;-73
2021/12/07 10:19:38;;;;;;;3.22;2.85;;;;;;;-1.42;96.25;99643.16;6273261;22;20023;-74
2021/12/07 10:22:06;;;;;;;3.65;3.35;;;;;;;-1.37;96.20;99641.38;6223483;22;20015;-74
2021/12/07 10:24:54;;;;;;;3.83;3.17;;;;;;;-1.38;96.04;99634.59;6274566;22;20026;-74
2021/12/07 10:27:36;;;;;;;3.47;3.17;;;;;;;-1.34;96.71;99626.84;6275102;22;20022;-73
2021/12/07 10:30:10;;;;;;;2.92;2.72;;;;;;;-1.35;96.14;99637.13;6273539;22;20103;-73
2021/12/07 10:32:39;;;;;;;2.40;2.20;;;;;;;-1.31;96.20;99636.22;6273808;22;20027;-74
2021/12/07 10:35:29;;;;;;;2.58;2.38;;;;;;;-1.37;96.11;99619.19;6273706;22;20015;-75
2021/12/07 10:38:13;;;;;;;2.65;2.55;;;;;;;-1.28;96.03;99639.59;6250849;22;20127;-75
2021/12/07 10:40:55;;;;;;;3.03;2.78;;;;;;;-1.27;95.70;99631.03;6273796;22;20011;-74
2021/12/07 10:43:43;;;;;;;2.20;2.00;;;;;;;-1.24;95.48;99636.13;6274798;22;20027;-75
2021/12/07 10:46:28;;;;;;;2.58;2.45;;;;;;;-1.24;96.02;99625.88;6274712;22;20011;-73
2021/12/07 10:49:09;;;;;;;2.70;2.60;;;;;;;-1.24;95.20;99632.72;6298240;22;20026;-74
2021/12/07 10:51:38;;;;;;;3.83;2.42;;;;;;;-1.22;95.22;99631.84;6277234;22;20019;-77
2021/12/07 10:54:04;;;;;;;3.03;2.75;;;;;;;-1.16;95.34;99625.81;6252940;22;20020;-74
2021/12/07 10:56:36;;;;;;;4.63;4.18;;;;;;;-1.13;95.74;99621.50;6277928;22;20218;-74
2021/12/07 10:59:06;;;;;;;2.60;2.50;;;;;;;-1.14;94.82;99624.91;6302938;22;20075;-74
2021/12/07 11:01:37;;;;;;;2.88;2.67;;;;;;;-1.12;95.16;99609.56;6276292;22;20390;-74
2021/12/07 11:04:20;;;;;;;;;;;;;;;-1.09;95.57;99610.38;6252130;22;20027;-75
2021/12/07 11:07:27;;;;;;;2.35;2.25;;;;;;;-1.09;95.14;99605.25;6279354;22;19918;-75
2021/12/07 11:10:17;;;;;;;2.97;2.78;;;;;;;-1.09;95.64;99612.06;6234954;22;20479;-73
2021/12/07 11:12:49;;;;;;;3.50;3.25;;;;;;;-1.11;95.37;99578.78;6226371;22;20026;-75
2021/12/07 11:15:23;;;;;;;3.38;3.17;;;;;;;-1.12;96.04;99607.84;6277146;22;20307;-76
2021/12/07 11:18:02;;;;;;;3.15;2.88;;;;;;;-1.06;95.97;99612.88;6230116;22;20216;-74
2021/12/07 11:20:37;;;;;;;3.42;3.15;;;;;;;-1.11;95.99;99604.41;6279509;22;20042;-75
2021/12/07 11:23:26;;;;;;;2.67;2.47;;;;;;;-1.21;95.96;99582.31;6254117;22;20457;-73
2021/12/07 11:29:40;;;;;;;2.70;2.60;;;;;;;-1.20;95.82;99581.47;6281330;22;20489;-74
2021/12/07 11:32:03;;;;;;;2.75;2.58;;;;;;;-1.03;96.17;99613.69;6279781;22;20434;-77
2021/12/07 11:34:36;;;;;;;3.15;2.95;;;;;;;-1.00;96.21;99622.19;6298303;22;20026;-77
2021/12/07 11:37:06;;;;;;;3.47;3.17;;;;;;;-0.97;96.69;99626.44;6279217;22;20437;-76
2021/12/07 11:39:37;;;;;;;2.78;2.58;;;;;;;-0.98;96.21;99617.88;6278130;22;20473;-76
2021/12/07 11:42:06;;;;;;;4.38;4.07;;;;;;;-0.94;96.30;99624.69;6281071;22;20453;-76
2021/12/07 11:44:56;;;;;;;4.47;4.05;;;;;;;-0.92;96.60;99611.88;6283017;22;20057;-75
2021/12/07 11:47:28;;;;;;;1.80;1.80;;;;;;;-0.92;96.42;99615.28;6276430;22;20043;-74
2021/12/07 11:49:55;;;;;;;2.95;2.85;;;;;;;-0.92;96.03;99602.47;6280412;22;20023;-72
2021/12/07 11:52:21;;;;;;;2.85;2.75;;;;;;;-0.91;96.14;99616.09;6276441;22;20034;-75
2021/12/07 11:54:47;;;;;;;3.65;3.35;;;;;;;-0.90;96.29;99605.84;6278056;22;20043;-74
2021/12/07 11:57:15;;;;;;;3.45;3.25;;;;;;;-0.91;96.39;99600.72;6276199;22;20015;-74
2021/12/07 11:59:41;;;;;;;5.65;5.15;;;;;;;-0.88;96.33;99605.84;6301215;22;20020;-74
2021/12/07 12:02:07;;;;;;;2.90;2.70;;;;;;;-0.86;96.32;99612.63;6274550;22;20015;-74
2021/12/07 12:04:33;;;;;;;3.58;3.28;;;;;;;-0.83;96.17;99620.28;6277080;22;20051;-74
2021/12/07 12:07:00;;;;;;;4.88;4.45;;;;;;;-0.84;96.16;99607.47;6300957;22;20016;-74
2021/12/07 12:09:26;;;;;;;3.25;3.00;;;;;;;-0.80;96.06;99611.69;6246830;22;20126;-77
2021/12/07 12:12:21;;;;;;;4.07;3.78;;;;;;;-0.82;96.06;99605.75;6245500;22;20027;-76
2021/12/07 12:15:11;;;;;;;4.03;3.80;;;;;;;-0.80;96.44;99611.69;6271354;22;20019;-76
2021/12/07 12:18:00;;;;;;;4.15;3.85;;;;;;;-0.79;95.94;99600.59;6271295;22;20027;-76
2021/12/07 12:20:56;;;;;;;4.20;3.80;;;;;;;-0.76;96.13;99613.38;6299523;22;20614;-76
2021/12/07 12:23:45;;;;;;;3.40;3.10;;;;;;;-0.73;95.95;99615.88;6276166;22;20070;-76
2021/12/07 12:26:12;;;;;;;2.70;2.50;;;;;;;-0.72;96.23;99622.72;6262497;22;20475;-75
2021/12/07 12:28:47;;;;;;;3.58;3.38;;;;;;;-0.73;96.24;99626.13;6277029;22;20026;-76
2021/12/07 12:31:15;;;;;;;3.38;3.17;;;;;;;-0.72;95.90;99617.59;6274273;22;20016;-76
2021/12/07 12:33:53;;;;;;;3.00;2.90;;;;;;;-0.74;96.11;99612.47;6274218;22;20470;-76
2021/12/07 12:36:21;;;;;;;5.00;4.53;;;;;;;-0.70;96.00;99626.09;6248636;22;20091;-76
2021/12/07 12:39:03;;;;;;;4.00;3.70;;;;;;;-0.72;96.53;99617.59;6249753;22;20042;-74
2021/12/07 12:41:29;;;;;;;6.55;5.95;;;;;;;-0.69;97.19;99633.75;6301622;22;20043;-75
2021/12/07 12:43:58;;;;;;;3.83;3.53;;;;;;;-0.71;97.04;99624.38;6277027;22;20015;-75
2021/12/07 12:46:28;;;;;;;4.60;4.20;;;;;;;-0.68;97.03;99634.59;6301001;22;20019;-75
2021/12/07 12:48:57;;;;;;;3.90;3.50;;;;;;;-0.64;96.81;99636.25;6273731;22;20019;-75
2021/12/07 12:51:23;;;;;;;7.18;5.30;;;;;;;-0.65;96.85;99632.84;6274866;22;20050;-76
2021/12/07 12:53:50;;;;;;;3.85;3.55;;;;;;;-0.61;96.94;99636.22;6296361;22;20015;-75
2021/12/07 12:56:19;;;;;;;5.05;4.60;;;;;;;-0.62;96.64;99635.34;6273629;22;20494;-75
2021/12/07 12:58:53;;;;;;;4.07;3.75;;;;;;;-0.64;96.76;99631.97;6295981;22;20015;-74
2021/12/07 13:01:26;;;;;;;2.97;2.72;;;;;;;-0.59;96.47;99631.94;6276761;22;20024;-74
2021/12/07 13:04:12;;;;;;;2.22;2.10;;;;;;;-0.57;96.65;99630.19;6303804;22;20019;-74
2021/12/07 13:06:54;;;;;;;4.03;3.72;;;;;;;-0.57;96.89;99627.63;6275625;22;20019;-76
2021/12/07 13:09:20;;;;;;;3.83;2.70;;;;;;;-0.55;96.57;99631.00;6276847;22;20047;-76
2021/12/07 13:11:55;;;;;;;2.45;2.33;;;;;;;-0.54;96.82;99625.00;6274045;22;20020;-76
2021/12/07 13:14:21;;;;;;;4.07;3.78;;;;;;;-0.53;97.06;99636.97;6274812;22;20077;-75
2021/12/07 13:16:48;;;;;;;4.30;3.90;;;;;;;-0.52;96.79;99625.81;6273093;22;20015;-75
2021/12/07 13:19:14;;;;;;;4.05;3.75;;;;;;;-0.51;97.21;99627.53;6273320;22;20015;-75
2021/12/07 13:21:42;;;;;;;5.30;4.90;;;;;;;-0.54;97.24;99614.75;6303320;22;20023;-74
2021/12/07 13:24:19;;;;;;;3.78;3.50;;;;;;;-0.51;97.35;99614.72;6302231;22;20086;-75